Time;durP1;ratioP1;P1;durP2;ratioP2;P2;SDS_P1;SDS_P2;PMS_P1;PMS_P2;Temp;Humidity;BMP_temperature;BMP_pressure;BME280_temperature;BME280_humidity;BME280_pressure;Samples;Min_cycle;Max_cycle;Signal;HPM_P1;HPM_P2
2021/12/23 00:02:21;;;;;;;40.03;15.05;;;-5.20;99.90;;;;;;5060284;28;20032;-85
2021/12/23 00:04:47;;;;;;;32.20;13.02;;;-5.20;99.90;;;;;;5016816;28;20106;-85
2021/12/23 00:07:13;;;;;;;44.92;15.95;;;-5.20;99.90;;;;;;5056942;28;20029;-85
2021/12/23 00:12:13;;;;;;;39.65;13.43;;;-5.30;99.90;;;;;;5070584;28;20028;-85
2021/12/23 00:14:39;;;;;;;32.03;12.55;;;-5.30;99.90;;;;;;5063930;28;20385;-85
2021/12/23 00:23:21;;;;;;;34.83;13.80;;;-5.30;99.90;;;;;;5077061;28;20078;-85
2021/12/23 00:25:19;;;;;;;36.63;14.18;;;-5.30;99.90;;;;;;5072029;28;20067;-86
2021/12/23 00:27:45;;;;;;;41.50;15.10;;;-5.30;99.90;;;;;;5069470;28;20099;-85
2021/12/23 00:30:11;;;;;;;46.80;15.65;;;-5.30;99.90;;;;;;5025939;28;20109;-85
2021/12/23 00:32:37;;;;;;;39.50;15.27;;;-5.30;99.90;;;;;;5061539;28;20282;-85
2021/12/23 00:35:07;;;;;;;37.70;15.27;;;-5.40;99.90;;;;;;5065602;28;20028;-86
2021/12/23 00:37:38;;;;;;;41.35;15.27;;;-5.40;99.90;;;;;;5046122;28;20042;-85
2021/12/23 00:40:08;;;;;;;43.55;15.30;;;-5.40;99.90;;;;;;5053355;28;20040;-86
2021/12/23 00:42:36;;;;;;;38.85;14.05;;;-5.40;99.90;;;;;;5023031;28;20152;-85
2021/12/23 00:45:03;;;;;;;44.00;15.68;;;-5.40;99.90;;;;;;5062574;28;20496;-85
2021/12/23 00:47:29;;;;;;;40.63;13.50;;;-5.40;99.90;;;;;;5064782;28;20040;-85
2021/12/23 00:49:55;;;;;;;40.72;14.82;;;-5.40;99.90;;;;;;5076211;28;20052;-85
2021/12/23 00:52:28;;;;;;;40.35;14.25;;;-5.40;99.90;;;;;;5044972;28;20560;-85
2021/12/23 00:54:54;;;;;;;39.15;14.48;;;-5.40;99.90;;;;;;5017030;28;20041;-85
2021/12/23 00:57:26;;;;;;;33.75;14.15;;;-5.40;99.90;;;;;;5054519;28;20511;-85
2021/12/23 00:59:57;;;;;;;47.17;15.63;;;-5.30;99.90;;;;;;5035774;28;20033;-85
2021/12/23 01:02:27;;;;;;;37.30;13.07;;;-5.30;99.90;;;;;;5065065;28;20028;-85
2021/12/23 01:04:52;;;;;;;42.43;15.43;;;-5.30;99.90;;;;;;5043214;28;20043;-85
2021/12/23 01:07:18;;;;;;;40.65;15.18;;;-5.30;99.90;;;;;;5046246;28;20037;-85
2021/12/23 01:09:44;;;;;;;40.15;14.23;;;-5.30;99.90;;;;;;5033862;28;20126;-85
2021/12/23 01:12:12;;;;;;;39.22;14.45;;;-5.30;99.90;;;;;;5060892;28;20416;-85
2021/12/23 01:15:38;;;;;;;44.08;16.10;;;-5.30;99.90;;;;;;5059377;28;20549;-85
2021/12/23 01:19:54;;;;;;;41.60;14.43;;;-5.30;99.90;;;;;;5042096;28;20044;-85
2021/12/23 01:22:20;;;;;;;41.60;13.07;;;-5.30;99.90;;;;;;5061186;28;20570;-85
2021/12/23 01:24:47;;;;;;;38.70;14.93;;;-5.20;99.90;;;;;;5037863;28;20036;-85
2021/12/23 01:27:13;;;;;;;35.80;14.20;;;-5.20;99.90;;;;;;5043968;28;20521;-85
2021/12/23 01:29:39;;;;;;;40.65;14.05;;;-5.20;99.90;;;;;;5076103;28;20033;-85
2021/12/23 01:32:06;;;;;;;43.78;13.73;;;-5.10;99.90;;;;;;5045795;28;20029;-85
2021/12/23 01:34:33;;;;;;;34.83;13.57;;;-5.10;99.90;;;;;;5025008;28;20576;-85
2021/12/23 01:37:03;;;;;;;36.22;12.73;;;-5.00;99.90;;;;;;5043753;28;20020;-85
2021/12/23 01:39:33;;;;;;;45.20;15.13;;;-5.00;99.90;;;;;;5025801;28;20052;-85
2021/12/23 01:41:59;;;;;;;42.90;12.67;;;-4.90;99.90;;;;;;5025614;28;20074;-85
2021/12/23 01:44:25;;;;;;;34.65;11.73;;;-4.80;99.90;;;;;;5068065;28;20392;-85
2021/12/23 01:46:50;;;;;;;33.42;12.90;;;-4.80;99.90;;;;;;5077173;28;20025;-84
2021/12/23 01:49:16;;;;;;;36.45;13.73;;;-4.70;99.90;;;;;;5045059;28;20028;-84
2021/12/23 01:51:42;;;;;;;36.38;13.15;;;-4.70;99.90;;;;;;5071496;28;20507;-84
2021/12/23 01:54:07;;;;;;;37.72;13.95;;;-4.60;99.90;;;;;;5040065;28;20035;-85
2021/12/23 01:56:33;;;;;;;45.90;14.10;;;-4.60;99.90;;;;;;5054947;28;20643;-84
2021/12/23 01:58:59;;;;;;;30.02;11.80;;;-4.60;99.90;;;;;;5042212;28;20041;-84
2021/12/23 02:01:24;;;;;;;47.17;14.65;;;-4.60;99.90;;;;;;5048884;28;20094;-84
2021/12/23 02:03:50;;;;;;;39.60;13.82;;;-4.50;99.90;;;;;;5044797;28;20381;-85
2021/12/23 02:06:16;;;;;;;40.67;13.73;;;-4.50;99.90;;;;;;5054929;28;20477;-85
2021/12/23 02:08:44;;;;;;;36.90;14.38;;;-4.50;99.90;;;;;;5034218;28;20043;-84
2021/12/23 02:11:11;;;;;;;34.08;12.32;;;-4.50;99.90;;;;;;5101038;22;20047;-83
2021/12/23 02:13:37;;;;;;;42.28;14.27;;;-4.50;99.90;;;;;;5037195;28;20028;-83
2021/12/23 02:16:04;;;;;;;30.95;13.75;;;-4.40;99.90;;;;;;5044540;28;20127;-83
2021/12/23 02:18:31;;;;;;;46.45;14.48;;;-4.40;99.90;;;;;;5022926;28;20033;-83
2021/12/23 02:20:57;;;;;;;39.63;13.32;;;-4.40;99.90;;;;;;5021742;28;20380;-83
2021/12/23 02:23:24;;;;;;;34.75;13.07;;;-4.40;99.90;;;;;;5045433;28;20046;-83
2021/12/23 02:25:50;;;;;;;40.08;14.98;;;-4.40;99.90;;;;;;5049534;28;20028;-83
2021/12/23 02:28:20;;;;;;;46.33;14.98;;;-4.40;99.90;;;;;;5077768;28;20472;-83
2021/12/23 02:30:51;;;;;;;42.80;13.88;;;-4.50;99.90;;;;;;5012562;28;20090;-84
2021/12/23 02:33:19;;;;;;;40.00;14.43;;;-4.50;99.90;;;;;;5037624;28;20033;-83
2021/12/23 02:35:45;;;;;;;43.28;14.75;;;-4.50;99.90;;;;;;5026754;28;20025;-84
2021/12/23 02:38:14;;;;;;;47.22;15.23;;;-4.50;99.90;;;;;;5077491;28;20082;-84
2021/12/23 02:40:42;;;;;;;42.30;13.63;;;-4.60;99.90;;;;;;5028140;28;20029;-83
2021/12/23 02:43:16;;;;;;;37.92;14.00;;;-4.60;99.90;;;;;;5064887;28;20020;-84
2021/12/23 02:45:43;;;;;;;45.75;15.93;;;-4.70;99.90;;;;;;5045489;28;20479;-84
2021/12/23 02:48:14;;;;;;;33.40;13.60;;;-4.70;99.90;;;;;;5057862;28;20033;-83
2021/12/23 02:50:41;;;;;;;36.30;13.88;;;-4.70;99.90;;;;;;5041631;28;20029;-82
2021/12/23 02:53:07;;;;;;;41.80;14.88;;;-4.80;99.90;;;;;;5039611;28;20116;-84
2021/12/23 02:55:33;;;;;;;44.70;15.07;;;-4.80;99.90;;;;;;5061938;28;20029;-83
2021/12/23 02:57:59;;;;;;;43.17;14.85;;;-4.80;99.90;;;;;;5040107;28;20021;-83
2021/12/23 03:00:24;;;;;;;38.75;14.00;;;-4.90;99.90;;;;;;5035862;28;20029;-82
2021/12/23 03:02:50;;;;;;;40.22;14.57;;;-4.90;99.90;;;;;;5035643;28;20651;-83
2021/12/23 03:05:16;;;;;;;36.90;14.52;;;-4.90;99.90;;;;;;5035859;28;20090;-83
2021/12/23 03:07:41;;;;;;;38.83;13.52;;;-5.00;99.90;;;;;;5051662;28;20055;-83
2021/12/23 03:10:08;;;;;;;37.55;14.40;;;-5.00;99.90;;;;;;5031610;28;20106;-83
2021/12/23 03:12:34;;;;;;;38.97;12.50;;;-5.00;99.90;;;;;;5013177;28;20123;-84
2021/12/23 03:15:00;;;;;;;43.95;14.43;;;-5.00;99.90;;;;;;5052401;28;20039;-83
2021/12/23 03:17:26;;;;;;;39.67;14.43;;;-5.10;99.90;;;;;;5075571;28;20393;-83
2021/12/23 03:19:52;;;;;;;47.70;16.23;;;-5.10;99.90;;;;;;5062770;28;20065;-83
2021/12/23 03:22:18;;;;;;;35.75;13.77;;;-5.10;99.90;;;;;;5002910;28;20111;-83
2021/12/23 03:24:44;;;;;;;46.47;15.77;;;-5.10;99.90;;;;;;5041394;28;20401;-83
2021/12/23 03:27:10;;;;;;;37.40;13.13;;;-5.10;99.90;;;;;;5038673;28;20033;-83
2021/12/23 03:29:35;;;;;;;36.45;14.70;;;-5.20;99.90;;;;;;5022080;28;20025;-83
2021/12/23 03:32:01;;;;;;;37.55;14.43;;;-5.20;99.90;;;;;;5035687;28;20048;-83
2021/12/23 03:34:27;;;;;;;38.03;13.02;;;-5.10;99.90;;;;;;5062341;28;20020;-83
2021/12/23 03:36:53;;;;;;;37.17;14.25;;;-5.10;99.90;;;;;;5022552;28;20029;-83
2021/12/23 03:39:19;;;;;;;43.22;15.23;;;-5.20;99.90;;;;;;5039019;28;20032;-84
2021/12/23 03:41:46;;;;;;;41.03;13.90;;;-5.20;99.90;;;;;;5022163;28;20040;-83
2021/12/23 03:44:12;;;;;;;37.85;13.80;;;-5.20;99.90;;;;;;5045110;28;20113;-83
2021/12/23 03:46:38;;;;;;;32.40;11.77;;;-5.20;99.90;;;;;;5054252;28;20051;-84
2021/12/23 03:49:05;;;;;;;44.83;15.07;;;-5.20;99.90;;;;;;5056286;28;20029;-83
2021/12/23 03:51:32;;;;;;;46.58;15.00;;;-5.20;99.90;;;;;;5022029;28;20024;-83
2021/12/23 03:53:58;;;;;;;38.72;13.70;;;-5.20;99.90;;;;;;5062909;28;20067;-82
2021/12/23 03:56:23;;;;;;;36.03;14.07;;;-5.20;99.90;;;;;;5071988;28;20055;-83
2021/12/23 03:58:50;;;;;;;32.55;14.05;;;-5.20;99.90;;;;;;5059083;28;20406;-84
2021/12/23 04:01:16;;;;;;;38.47;13.85;;;-5.20;99.90;;;;;;5045112;28;20135;-83
2021/12/23 04:03:42;;;;;;;35.20;15.38;;;-5.20;99.90;;;;;;5060085;28;20060;-84
2021/12/23 04:06:08;;;;;;;44.85;14.98;;;-5.20;99.90;;;;;;5058457;28;20024;-84
2021/12/23 04:08:34;;;;;;;43.72;15.25;;;-5.20;99.90;;;;;;5073610;28;20050;-83
2021/12/23 04:11:00;;;;;;;33.15;13.05;;;-5.20;99.90;;;;;;5032111;28;20107;-83
2021/12/23 04:13:26;;;;;;;43.22;15.68;;;-5.20;99.90;;;;;;5019214;28;20611;-83
2021/12/23 04:15:52;;;;;;;37.50;14.30;;;-5.10;99.90;;;;;;5039325;28;20486;-82
2021/12/23 04:18:18;;;;;;;43.08;15.40;;;-5.10;99.90;;;;;;5031073;28;20025;-83
2021/12/23 04:21:02;;;;;;;45.60;14.93;;;-5.10;99.90;;;;;;5060123;28;20553;-83
2021/12/23 04:23:30;;;;;;;37.63;14.05;;;-5.10;99.90;;;;;;5042046;28;20093;-83
2021/12/23 04:25:56;;;;;;;42.78;14.02;;;-5.10;99.90;;;;;;5058302;28;20032;-83
2021/12/23 04:28:23;;;;;;;40.55;13.68;;;-5.00;99.90;;;;;;5058120;28;20502;-83
2021/12/23 04:30:49;;;;;;;42.95;15.70;;;-5.00;99.90;;;;;;5058248;28;20039;-83
2021/12/23 04:33:15;;;;;;;37.53;14.38;;;-5.00;99.90;;;;;;5059006;28;20493;-82
2021/12/23 04:35:53;;;;;;;34.63;13.70;;;-5.00;99.90;;;;;;5046169;28;20519;-84
2021/12/23 04:38:19;;;;;;;37.60;13.75;;;-5.00;99.90;;;;;;5055061;28;20450;-83
2021/12/23 04:40:45;;;;;;;32.92;13.15;;;-4.90;99.90;;;;;;5021746;28;20064;-83
2021/12/23 04:43:10;;;;;;;32.97;12.15;;;-4.90;99.90;;;;;;5038826;28;20384;-83
2021/12/23 04:45:36;;;;;;;34.47;13.25;;;-4.90;99.90;;;;;;5038667;28;20059;-83
2021/12/23 04:48:02;;;;;;;37.63;13.00;;;-4.80;99.90;;;;;;5038586;28;20028;-83
2021/12/23 04:50:28;;;;;;;33.45;12.77;;;-4.80;99.90;;;;;;5040724;28;20656;-83
2021/12/23 04:52:56;;;;;;;31.80;13.02;;;-4.80;99.90;;;;;;5075269;28;20031;-83
2021/12/23 04:55:22;;;;;;;41.92;15.15;;;-4.80;99.90;;;;;;5029364;28;20074;-83
2021/12/23 04:57:48;;;;;;;42.92;14.48;;;-4.80;99.90;;;;;;5018254;28;20116;-84
2021/12/23 05:00:18;;;;;;;35.45;14.00;;;-4.80;99.90;;;;;;5034956;28;20086;-83
2021/12/23 05:02:44;;;;;;;32.95;12.55;;;-4.90;99.90;;;;;;5036086;28;20538;-83
2021/12/23 05:05:10;;;;;;;34.05;13.00;;;-4.90;99.90;;;;;;5054966;28;20040;-83
2021/12/23 05:07:36;;;;;;;46.35;14.73;;;-4.90;99.90;;;;;;5066491;28;20036;-83
2021/12/23 05:10:04;;;;;;;34.25;13.80;;;-5.00;99.90;;;;;;5061748;28;20119;-82
2021/12/23 05:12:30;;;;;;;41.53;13.93;;;-5.00;99.90;;;;;;5058789;28;20027;-83
2021/12/23 05:14:55;;;;;;;39.22;15.77;;;-5.00;99.90;;;;;;5040495;28;20029;-84
2021/12/23 05:17:21;;;;;;;42.03;15.30;;;-5.00;99.90;;;;;;5035880;28;20033;-83
2021/12/23 05:19:47;;;;;;;46.75;16.45;;;-5.00;99.90;;;;;;5035304;28;20029;-84
2021/12/23 05:22:12;;;;;;;36.45;14.23;;;-5.10;99.90;;;;;;5035441;28;20691;-83
2021/12/23 05:24:38;;;;;;;36.78;14.02;;;-5.00;99.90;;;;;;5034690;28;20041;-83
2021/12/23 05:27:04;;;;;;;41.20;16.08;;;-5.00;99.90;;;;;;5046919;28;20028;-83
2021/12/23 05:29:30;;;;;;;47.03;15.90;;;-5.00;99.90;;;;;;5041909;28;20020;-83
2021/12/23 05:31:55;;;;;;;29.40;12.63;;;-5.00;99.90;;;;;;5041804;28;20509;-83
2021/12/23 05:34:21;;;;;;;39.60;13.30;;;-5.00;99.90;;;;;;5047958;28;20399;-84
2021/12/23 05:36:47;;;;;;;38.55;15.32;;;-5.00;99.90;;;;;;5018478;28;20478;-82
2021/12/23 05:39:12;;;;;;;36.88;14.73;;;-5.00;99.90;;;;;;5034688;28;20033;-84
2021/12/23 05:41:39;;;;;;;35.67;12.57;;;-5.00;99.90;;;;;;5033648;28;20068;-83
2021/12/23 05:44:05;;;;;;;35.78;13.25;;;-5.00;99.90;;;;;;5048170;28;20039;-83
2021/12/23 05:46:31;;;;;;;34.70;14.15;;;-4.90;99.90;;;;;;5053758;28;20020;-83
2021/12/23 05:48:56;;;;;;;33.70;12.88;;;-4.90;99.90;;;;;;5036967;28;20552;-83
2021/12/23 05:51:22;;;;;;;36.13;13.00;;;-4.90;99.90;;;;;;5060523;28;20040;-83
2021/12/23 05:53:50;;;;;;;33.28;13.45;;;-4.90;99.90;;;;;;5040070;28;20081;-83
2021/12/23 05:56:18;;;;;;;42.42;15.02;;;-4.90;99.90;;;;;;5036825;28;20039;-83
2021/12/23 05:58:44;;;;;;;38.05;14.00;;;-4.90;99.90;;;;;;5024974;28;20123;-83
2021/12/23 06:01:10;;;;;;;36.28;13.23;;;-4.80;99.90;;;;;;5017260;28;20061;-82
2021/12/23 06:03:36;;;;;;;44.35;16.83;;;-4.80;99.90;;;;;;5034317;28;20029;-84
2021/12/23 06:06:01;;;;;;;47.17;14.68;;;-4.80;99.90;;;;;;5016657;28;20029;-83
2021/12/23 06:08:27;;;;;;;41.00;15.20;;;-4.80;99.90;;;;;;5049716;28;20036;-82
2021/12/23 06:10:56;;;;;;;37.17;13.18;;;-4.80;99.90;;;;;;5040952;28;20067;-83
2021/12/23 06:13:21;;;;;;;40.28;14.07;;;-4.80;99.90;;;;;;5048880;28;20028;-83
2021/12/23 06:15:47;;;;;;;39.80;14.55;;;-4.80;99.90;;;;;;5060338;28;20027;-82
2021/12/23 06:18:13;;;;;;;37.00;14.02;;;-4.80;99.90;;;;;;5042907;28;20040;-83
2021/12/23 06:20:38;;;;;;;40.65;15.95;;;-4.80;99.90;;;;;;5071514;28;20036;-83
2021/12/23 06:23:05;;;;;;;37.05;14.18;;;-4.90;99.90;;;;;;5060653;28;20032;-83
2021/12/23 06:25:34;;;;;;;38.10;14.13;;;-4.80;99.90;;;;;;5036717;28;20029;-83
2021/12/23 06:27:59;;;;;;;38.35;16.10;;;-4.80;99.90;;;;;;5035793;28;20286;-85
2021/12/23 06:30:25;;;;;;;42.53;15.98;;;-4.80;99.90;;;;;;5038484;28;20117;-85
2021/12/23 06:32:53;;;;;;;40.83;14.93;;;-4.80;99.90;;;;;;5047061;28;20036;-86
2021/12/23 06:35:22;;;;;;;44.28;15.88;;;-4.80;99.90;;;;;;5045501;28;20043;-85
2021/12/23 06:37:48;;;;;;;41.10;15.40;;;-4.90;99.90;;;;;;5044789;28;20036;-85
2021/12/23 06:40:15;;;;;;;46.65;14.77;;;-4.90;99.90;;;;;;5039742;28;20040;-84
2021/12/23 06:42:41;;;;;;;39.70;14.95;;;-4.90;99.90;;;;;;5057241;28;20032;-84
2021/12/23 06:45:07;;;;;;;44.72;15.55;;;-5.00;99.90;;;;;;5078414;28;20035;-84
2021/12/23 06:47:37;;;;;;;39.47;15.13;;;-5.00;99.90;;;;;;5045152;28;20025;-84
2021/12/23 06:50:04;;;;;;;50.53;15.95;;;-5.00;99.90;;;;;;5059785;28;20116;-85
2021/12/23 06:52:31;;;;;;;44.05;15.30;;;-5.00;99.90;;;;;;5044670;28;20040;-85
2021/12/23 06:54:57;;;;;;;34.90;12.80;;;-4.90;99.90;;;;;;5063741;28;20056;-85
2021/12/23 06:57:26;;;;;;;47.45;16.38;;;-4.90;99.90;;;;;;5037926;28;20044;-84
2021/12/23 06:59:52;;;;;;;47.35;16.63;;;-4.90;99.90;;;;;;5034539;28;20407;-85
2021/12/23 07:02:21;;;;;;;36.50;14.43;;;-4.90;99.90;;;;;;5062953;28;20024;-85
2021/12/23 07:04:46;;;;;;;48.83;17.13;;;-4.90;99.90;;;;;;5082566;28;20058;-85
2021/12/23 07:07:23;;;;;;;38.20;14.02;;;-4.90;99.90;;;;;;5051667;28;20033;-85
2021/12/23 07:09:49;;;;;;;39.95;15.40;;;-4.90;99.90;;;;;;5043952;28;20036;-85
2021/12/23 07:12:15;;;;;;;41.28;15.23;;;-4.90;99.90;;;;;;5048539;28;20419;-85
2021/12/23 07:14:41;;;;;;;41.65;13.98;;;-4.90;99.90;;;;;;5061798;28;20109;-84
2021/12/23 07:17:07;;;;;;;40.25;13.95;;;-4.90;99.90;;;;;;5070456;28;20016;-85
2021/12/23 07:19:34;;;;;;;39.08;13.63;;;-4.80;99.90;;;;;;5043236;28;20025;-85
2021/12/23 07:22:00;;;;;;;37.15;15.25;;;-4.80;99.90;;;;;;5059287;28;20021;-85
2021/12/23 07:24:26;;;;;;;34.92;13.63;;;-4.80;99.90;;;;;;5036121;28;20438;-84
2021/12/23 07:26:54;;;;;;;42.05;15.35;;;-4.70;99.90;;;;;;5006832;28;20036;-85
2021/12/23 07:29:20;;;;;;;40.85;16.00;;;-4.70;99.90;;;;;;5009513;28;20040;-85
2021/12/23 07:31:46;;;;;;;41.67;15.13;;;-4.70;99.90;;;;;;5033482;28;20028;-85
2021/12/23 07:34:12;;;;;;;45.03;14.45;;;-4.60;99.90;;;;;;5062903;28;20099;-85
2021/12/23 07:36:39;;;;;;;44.13;14.48;;;-4.60;99.90;;;;;;5063714;28;20048;-85
2021/12/23 07:39:07;;;;;;;44.33;15.23;;;-4.60;99.90;;;;;;5026303;28;20119;-84
2021/12/23 07:41:33;;;;;;;51.10;15.23;;;-4.60;99.90;;;;;;5059136;28;20029;-84
2021/12/23 07:44:03;;;;;;;45.60;14.85;;;-4.50;99.90;;;;;;5059805;28;20434;-85
2021/12/23 07:46:31;;;;;;;51.03;16.27;;;-4.40;99.90;;;;;;5059079;28;20027;-85
2021/12/23 07:48:57;;;;;;;47.33;15.02;;;-4.30;99.90;;;;;;5058225;28;20029;-84
2021/12/23 07:51:23;;;;;;;35.20;14.70;;;-4.20;99.90;;;;;;5058418;28;20465;-84
2021/12/23 07:53:49;;;;;;;45.70;15.57;;;-4.10;99.90;;;;;;5056994;28;20123;-84
2021/12/23 07:56:15;;;;;;;43.15;16.23;;;-4.00;99.90;;;;;;5072689;28;20052;-86
2021/12/23 07:58:41;;;;;;;41.20;14.32;;;-4.00;99.90;;;;;;5045735;28;20059;-84
2021/12/23 08:01:07;;;;;;;40.22;14.50;;;-3.90;99.90;;;;;;5064775;28;20089;-85
2021/12/23 08:03:33;;;;;;;48.40;15.77;;;-3.80;99.90;;;;;;5077959;28;20020;-84
2021/12/23 08:05:59;;;;;;;42.08;15.02;;;-3.80;99.90;;;;;;5078342;28;20613;-85
2021/12/23 08:08:24;;;;;;;44.90;16.30;;;-3.60;99.90;;;;;;5058188;28;20032;-87
2021/12/23 08:10:50;;;;;;;43.30;13.85;;;-3.50;99.90;;;;;;5034568;28;20032;-86
2021/12/23 08:13:16;;;;;;;53.95;15.75;;;-3.40;99.90;;;;;;5018452;28;20036;-91
2021/12/23 08:15:42;;;;;;;39.25;14.40;;;-3.30;99.90;;;;;;5073091;22;20047;-84
2021/12/23 08:18:08;;;;;;;45.53;15.82;;;-3.20;99.90;;;;;;5060207;28;20103;-84
2021/12/23 08:20:34;;;;;;;45.17;16.33;;;-3.10;99.90;;;;;;5032305;28;20437;-84
2021/12/23 08:23:00;;;;;;;47.22;16.17;;;-3.00;99.90;;;;;;5071456;28;20408;-84
2021/12/23 08:25:26;;;;;;;45.03;15.50;;;-2.90;99.90;;;;;;5051142;28;20025;-85
2021/12/23 08:27:51;;;;;;;52.38;17.52;;;-2.80;99.90;;;;;;5043321;28;20044;-85
2021/12/23 08:30:19;;;;;;;40.80;13.93;;;-2.70;99.90;;;;;;5033467;28;20066;-85
2021/12/23 08:32:45;;;;;;;47.00;15.82;;;-2.60;99.90;;;;;;5060077;28;20025;-85
2021/12/23 08:35:11;;;;;;;46.80;15.75;;;-2.50;99.90;;;;;;5049951;28;20476;-85
2021/12/23 08:37:40;;;;;;;46.58;16.17;;;-2.40;99.90;;;;;;5040963;28;20044;-85
2021/12/23 08:40:07;;;;;;;43.50;16.38;;;-2.40;99.90;;;;;;5038377;28;20543;-85
2021/12/23 08:42:33;;;;;;;43.83;18.70;;;-2.30;99.90;;;;;;5022568;28;20104;-85
2021/12/23 08:44:59;;;;;;;54.70;17.95;;;-2.30;99.90;;;;;;5037075;28;20028;-85
2021/12/23 08:47:25;;;;;;;41.35;16.83;;;-2.20;99.90;;;;;;5021260;28;20539;-84
2021/12/23 08:49:51;;;;;;;43.78;16.70;;;-2.20;99.90;;;;;;5055420;28;20505;-85
2021/12/23 08:52:17;;;;;;;43.33;17.10;;;-2.20;99.90;;;;;;5022002;28;20029;-85
2021/12/23 08:54:43;;;;;;;54.00;17.88;;;-2.20;99.90;;;;;;5031293;28;20028;-85
2021/12/23 08:57:09;;;;;;;46.95;17.25;;;-2.20;99.90;;;;;;5059761;28;20078;-85
2021/12/23 08:59:35;;;;;;;48.42;17.25;;;-2.20;99.90;;;;;;5037873;28;20435;-84
2021/12/23 09:02:01;;;;;;;41.72;17.40;;;-2.20;99.90;;;;;;5037278;28;20558;-85
2021/12/23 09:04:27;;;;;;;39.53;15.93;;;-2.30;99.90;;;;;;5038239;28;20032;-85
2021/12/23 09:06:52;;;;;;;40.42;15.68;;;-2.30;99.90;;;;;;5056143;28;20112;-85
2021/12/23 09:09:20;;;;;;;42.30;14.85;;;-2.20;99.90;;;;;;5021494;28;20083;-85
2021/12/23 09:11:46;;;;;;;42.78;15.52;;;-2.20;99.90;;;;;;5036951;28;20033;-84
2021/12/23 09:14:12;;;;;;;39.10;14.95;;;-2.10;99.90;;;;;;5003406;28;20044;-85
2021/12/23 09:16:38;;;;;;;43.90;17.52;;;-2.10;99.90;;;;;;5054464;28;20036;-85
2021/12/23 09:19:05;;;;;;;43.35;17.25;;;-2.00;99.90;;;;;;5032420;28;20131;-84
2021/12/23 09:21:31;;;;;;;47.65;18.10;;;-2.00;99.90;;;;;;5046411;28;20055;-85
2021/12/23 09:23:57;;;;;;;44.85;17.55;;;-1.90;99.90;;;;;;5053775;28;20386;-85
2021/12/23 09:26:23;;;;;;;43.42;17.77;;;-1.90;99.90;;;;;;5020786;28;20102;-85
2021/12/23 09:34:01;;;;;;;53.42;19.55;;;-1.70;99.90;;;;;;5050274;28;20043;-84
2021/12/23 09:36:27;;;;;;;47.92;19.77;;;-1.50;99.90;;;;;;5033644;28;20033;-84
2021/12/23 09:38:52;;;;;;;42.88;17.25;;;-1.40;99.90;;;;;;5035231;28;20037;-86
2021/12/23 09:41:20;;;;;;;47.45;17.23;;;-1.40;99.90;;;;;;5043613;28;20330;-87
2021/12/23 09:43:46;;;;;;;83.82;27.88;;;-1.30;99.90;;;;;;5033517;28;20066;-87
2021/12/23 09:46:14;;;;;;;77.05;26.25;;;-1.20;99.90;;;;;;5053702;28;20036;-87
2021/12/23 09:48:43;;;;;;;56.78;21.80;;;-1.10;99.90;;;;;;5038872;28;20530;-86
2021/12/23 09:51:13;;;;;;;74.75;25.45;;;-1.00;99.90;;;;;;5047017;28;20025;-87
2021/12/23 09:53:42;;;;;;;51.27;20.27;;;-0.90;99.90;;;;;;5058033;28;20028;-87
2021/12/23 09:56:08;;;;;;;59.92;21.13;;;-0.80;99.90;;;;;;5034894;28;20029;-87
2021/12/23 09:58:34;;;;;;;56.00;20.25;;;-0.70;99.90;;;;;;5068384;28;20024;-88
2021/12/23 10:01:01;;;;;;;51.05;18.45;;;-0.60;99.90;;;;;;5022362;28;20033;-87
2021/12/23 10:03:29;;;;;;;48.38;17.42;;;-0.50;99.90;;;;;;5020601;28;20017;-87
2021/12/23 10:05:56;;;;;;;45.05;15.98;;;-0.40;99.90;;;;;;5020932;28;20036;-87
2021/12/23 10:08:22;;;;;;;43.55;17.45;;;-0.30;99.90;;;;;;5036540;28;20029;-87
2021/12/23 10:33:16;;;;;;;45.17;16.02;;;0.50;99.90;;;;;;5056679;28;19916;-88
2021/12/23 10:38:44;;;;;;;44.83;15.98;;;0.80;99.90;;;;;;5051890;28;20041;-87
2021/12/23 10:41:15;;;;;;;41.85;15.52;;;0.80;99.90;;;;;;5034364;28;20029;-86
2021/12/23 10:43:53;;;;;;;39.50;16.33;;;0.90;99.90;;;;;;5018414;28;20143;-87
2021/12/23 10:46:25;;;;;;;41.47;15.73;;;0.90;99.90;;;;;;5034056;28;20060;-86
2021/12/23 10:49:19;;;;;;;38.15;15.63;;;0.90;99.90;;;;;;5035162;28;20496;-88
2021/12/23 10:52:01;;;;;;;41.60;16.85;;;0.90;99.90;;;;;;5046022;28;20110;-87
2021/12/23 11:00:18;;;;;;;51.83;20.60;;;1.10;99.90;;;;;;5038454;28;20109;-87
2021/12/23 11:03:03;;;;;;;41.45;16.88;;;1.20;99.90;;;;;;5019305;28;20029;-87
2021/12/23 11:05:34;;;;;;;41.85;17.58;;;1.20;99.90;;;;;;5037685;28;20025;-87
2021/12/23 11:08:15;;;;;;;46.78;18.48;;;1.30;99.90;;;;;;5037217;28;20437;-87
2021/12/23 11:35:49;;;;;;;33.05;13.30;;;1.80;99.90;;;;;;5069528;28;20052;-86
2021/12/23 11:38:33;;;;;;;32.53;13.77;;;1.90;99.90;;;;;;5053244;28;20032;-87
2021/12/23 11:41:07;;;;;;;28.38;13.25;;;2.00;99.90;;;;;;5071207;28;20025;-87
2021/12/23 11:43:51;;;;;;;31.67;13.07;;;2.10;99.90;;;;;;5037442;28;20024;-87
2021/12/23 11:46:34;;;;;;;30.33;12.57;;;2.10;99.90;;;;;;5040300;28;20028;-87
2021/12/23 11:49:02;;;;;;;28.23;12.43;;;2.20;99.90;;;;;;5033066;28;20036;-87
2021/12/23 11:51:43;;;;;;;28.38;12.90;;;2.20;99.90;;;;;;5030829;28;20014;-87
2021/12/23 11:54:14;;;;;;;31.70;12.77;;;2.30;99.90;;;;;;5051409;28;20503;-87
2021/12/23 11:56:48;;;;;;;33.83;13.73;;;2.40;99.90;;;;;;5052638;28;20721;-87
2021/12/23 11:59:18;;;;;;;27.90;12.13;;;2.40;99.90;;;;;;5052821;28;20460;-87
2021/12/23 12:01:55;;;;;;;29.73;12.15;;;2.50;99.90;;;;;;5036950;28;20071;-87
2021/12/23 12:04:27;;;;;;;39.40;14.60;;;2.60;99.90;;;;;;5036749;28;20094;-87
2021/12/23 12:06:53;;;;;;;27.77;12.55;;;2.60;99.90;;;;;;5053188;28;20029;-87
2021/12/23 12:09:31;;;;;;;34.47;12.98;;;2.70;99.90;;;;;;5070901;28;20091;-87
2021/12/23 12:11:59;;;;;;;28.50;12.77;;;2.70;99.90;;;;;;5053029;28;20020;-88
2021/12/23 12:14:40;;;;;;;30.38;13.65;;;2.80;99.90;;;;;;5052728;28;20047;-87
2021/12/23 12:17:24;;;;;;;30.50;12.98;;;2.80;99.90;;;;;;5053102;28;20032;-86
2021/12/23 12:20:12;;;;;;;26.95;12.77;;;2.80;99.90;;;;;;5052467;28;20503;-87
2021/12/23 12:22:58;;;;;;;31.73;11.95;;;2.80;99.90;;;;;;5071933;28;20043;-87
2021/12/23 12:25:28;;;;;;;30.88;11.52;;;2.90;99.90;;;;;;5053095;28;20028;-87
2021/12/23 12:27:57;;;;;;;28.35;11.32;;;2.90;99.90;;;;;;5052476;28;20025;-87
2021/12/23 12:30:53;;;;;;;26.05;11.70;;;2.90;99.90;;;;;;5039868;28;20021;-87
2021/12/23 12:33:19;;;;;;;28.27;10.98;;;3.00;99.90;;;;;;5031489;28;20405;-87
2021/12/23 12:36:03;;;;;;;25.40;11.02;;;3.00;99.90;;;;;;5031773;28;20033;-87
2021/12/23 12:38:35;;;;;;;27.85;11.88;;;3.00;99.90;;;;;;5031552;28;20028;-86
2021/12/23 12:41:08;;;;;;;27.17;12.60;;;3.00;99.90;;;;;;5016879;28;20033;-86
2021/12/23 12:46:15;;;;;;;27.83;12.20;;;3.00;99.90;;;;;;5049516;28;20432;-86
2021/12/23 12:48:59;;;;;;;25.73;10.48;;;3.00;99.90;;;;;;5049556;28;20037;-86
2021/12/23 12:51:31;;;;;;;25.02;11.02;;;3.00;99.90;;;;;;5031952;28;20079;-87
2021/12/23 12:54:05;;;;;;;28.17;12.05;;;3.10;99.90;;;;;;5031447;28;20089;-86
2021/12/23 12:56:36;;;;;;;28.30;10.88;;;3.10;99.90;;;;;;5015876;28;20029;-87
2021/12/23 12:59:12;;;;;;;29.75;11.88;;;3.10;99.90;;;;;;5015346;28;20125;-87
2021/12/23 13:01:43;;;;;;;30.15;12.35;;;3.10;99.90;;;;;;5015723;28;20417;-87
2021/12/23 13:04:43;;;;;;;27.15;12.27;;;3.10;99.90;;;;;;5032183;28;20412;-86
2021/12/23 13:07:39;;;;;;;25.58;11.65;;;3.10;99.90;;;;;;5018239;28;20501;-87
2021/12/23 13:10:17;;;;;;;27.27;12.20;;;3.20;99.90;;;;;;5031143;28;20133;-86
2021/12/23 13:12:57;;;;;;;33.17;12.27;;;3.20;99.90;;;;;;5013636;28;20490;-87
2021/12/23 13:15:29;;;;;;;26.00;10.73;;;3.30;99.90;;;;;;5031843;28;20525;-87
2021/12/23 13:18:02;;;;;;;22.38;11.18;;;3.30;99.90;;;;;;5049603;28;20073;-87
2021/12/23 13:20:34;;;;;;;25.10;10.82;;;3.30;99.90;;;;;;5053500;28;20017;-87
2021/12/23 13:23:06;;;;;;;22.73;9.77;;;3.30;99.90;;;;;;5036252;28;20031;-86
2021/12/23 13:25:33;;;;;;;29.10;10.05;;;3.40;99.90;;;;;;5003030;28;20419;-87
2021/12/23 13:28:01;;;;;;;24.33;10.15;;;3.40;99.90;;;;;;5053511;28;20108;-87
2021/12/23 13:30:27;;;;;;;21.33;10.75;;;3.40;99.90;;;;;;5035343;28;20052;-87
2021/12/23 13:33:05;;;;;;;22.58;9.57;;;3.40;99.90;;;;;;5018128;28;20598;-87
2021/12/23 13:35:31;;;;;;;22.67;10.23;;;3.30;99.90;;;;;;5018617;28;20071;-87
2021/12/23 13:37:57;;;;;;;22.98;10.20;;;3.30;99.90;;;;;;5052447;28;20497;-87
2021/12/23 13:40:31;;;;;;;22.70;10.00;;;3.30;99.90;;;;;;5047994;28;20112;-87
2021/12/23 13:42:58;;;;;;;22.80;10.18;;;3.30;99.90;;;;;;5053438;28;20025;-86
2021/12/23 13:45:25;;;;;;;20.55;9.30;;;3.30;99.90;;;;;;5055204;28;20037;-86
2021/12/23 13:47:53;;;;;;;29.25;11.88;;;3.30;99.90;;;;;;5071381;28;20025;-84
2021/12/23 13:50:20;;;;;;;24.00;10.95;;;3.30;99.90;;;;;;5041158;28;20056;-85